createdAt,value
2022-10-30T00:02:12.548Z,11.30
2022-10-30T00:04:39.568Z,11.30
2022-10-30T00:07:06.492Z,11.20
2022-10-30T00:09:33.550Z,11.20
2022-10-30T00:12:00.652Z,11.20
2022-10-30T00:14:29.122Z,11.20
2022-10-30T00:16:56.045Z,11.10
2022-10-30T00:19:23.206Z,11.20
2022-10-30T00:21:50.086Z,11.20
2022-10-30T00:24:17.109Z,11.20
2022-10-30T00:26:44.053Z,11.20
2022-10-30T00:29:11.216Z,11.10
2022-10-30T00:31:38.088Z,11.10
2022-10-30T00:34:05.086Z,11.00
2022-10-30T00:36:32.041Z,11.00
2022-10-30T00:38:58.983Z,11.00
2022-10-30T00:41:26.443Z,10.90
2022-10-30T00:43:55.441Z,10.90
2022-10-30T00:46:30.972Z,10.90
2022-10-30T00:49:03.276Z,10.80
2022-10-30T00:51:31.221Z,10.80
2022-10-30T00:53:59.654Z,10.80
2022-10-30T00:56:27.319Z,10.80
2022-10-30T00:58:58.083Z,10.70
2022-10-30T01:01:26.963Z,10.70
2022-10-30T01:03:56.470Z,10.60
2022-10-30T01:06:24.414Z,10.60
2022-10-30T01:08:56.959Z,10.50
2022-10-30T01:11:27.444Z,10.50
2022-10-30T01:13:55.682Z,10.50
2022-10-30T01:16:33.189Z,10.40
2022-10-30T01:19:04.721Z,10.40
2022-10-30T01:21:40.920Z,10.40
2022-10-30T01:24:07.931Z,10.40
2022-10-30T01:26:34.905Z,10.30
2022-10-30T01:29:26.759Z,10.30
2022-10-30T01:32:20.762Z,10.30
2022-10-30T01:34:47.778Z,10.30
2022-10-30T01:37:18.047Z,10.20
2022-10-30T01:39:45.155Z,10.20
2022-10-30T01:42:31.130Z,10.20
2022-10-30T01:44:58.428Z,10.10
2022-10-30T01:47:44.127Z,10.10
2022-10-30T01:50:17.579Z,10.10
2022-10-30T01:52:47.679Z,10.00
2022-10-30T01:55:27.649Z,10.00
2022-10-30T01:58:07.481Z,9.90
2022-10-30T02:00:37.480Z,9.90
2022-10-30T02:03:05.624Z,9.90
2022-10-30T02:05:44.106Z,9.80
2022-10-30T02:08:11.129Z,9.80
2022-10-30T02:10:40.935Z,9.80
2022-10-30T02:13:08.018Z,9.70
2022-10-30T02:15:35.353Z,9.70
2022-10-30T02:18:02.665Z,9.70
2022-10-30T02:20:30.140Z,9.60
2022-10-30T02:22:59.556Z,9.60
2022-10-30T02:25:31.942Z,9.60
2022-10-30T02:27:59.328Z,9.50
2022-10-30T02:30:28.585Z,9.50
2022-10-30T02:32:55.948Z,9.50
2022-10-30T02:35:23.186Z,9.50
2022-10-30T02:37:51.581Z,9.50
2022-10-30T02:40:18.590Z,9.40
2022-10-30T02:42:45.557Z,9.40
2022-10-30T02:45:14.128Z,9.40
2022-10-30T02:47:41.039Z,9.40
2022-10-30T02:50:08.671Z,9.40
2022-10-30T02:52:38.159Z,9.40
2022-10-30T02:55:05.407Z,9.40
2022-10-30T02:57:32.413Z,9.40
2022-10-30T02:59:59.422Z,9.40
2022-10-30T03:02:26.648Z,9.40
2022-10-30T03:04:53.612Z,9.40
2022-10-30T03:07:20.690Z,9.30
2022-10-30T03:09:48.640Z,9.40
2022-10-30T03:12:15.560Z,9.30
2022-10-30T03:14:42.556Z,9.40
2022-10-30T03:17:10.751Z,9.40
2022-10-30T03:19:38.247Z,9.40
2022-10-30T03:22:05.239Z,9.40
2022-10-30T03:24:32.571Z,9.40
2022-10-30T03:26:59.638Z,9.40
2022-10-30T03:29:26.545Z,9.40
2022-10-30T03:31:53.527Z,9.30
2022-10-30T03:34:21.686Z,9.30
2022-10-30T03:36:48.789Z,9.30
2022-10-30T03:39:15.700Z,9.30
2022-10-30T03:41:44.629Z,9.30
2022-10-30T03:44:12.795Z,9.30
2022-10-30T03:46:39.693Z,9.30
2022-10-30T03:49:23.940Z,9.30
2022-10-30T03:51:51.087Z,9.30
2022-10-30T03:54:18.657Z,9.30
2022-10-30T03:56:46.232Z,9.20
2022-10-30T03:59:16.279Z,9.20
2022-10-30T04:01:51.622Z,9.20
2022-10-30T04:04:18.772Z,9.20
2022-10-30T04:06:45.707Z,9.10
2022-10-30T04:09:12.690Z,9.10
2022-10-30T04:11:42.790Z,9.10
2022-10-30T04:14:09.815Z,9.10
2022-10-30T04:16:37.348Z,9.10
2022-10-30T04:19:04.389Z,9.10
2022-10-30T04:21:33.942Z,9.10
2022-10-30T04:24:01.195Z,9.10
2022-10-30T04:26:31.255Z,9.00
2022-10-30T04:28:58.305Z,9.00
2022-10-30T04:31:25.940Z,9.00
2022-10-30T04:33:53.116Z,9.00
2022-10-30T04:36:22.195Z,9.10
2022-10-30T04:38:49.482Z,9.00
2022-10-30T04:41:16.577Z,9.00
2022-10-30T04:44:03.546Z,9.00
2022-10-30T04:46:32.734Z,9.00
2022-10-30T04:49:07.803Z,9.00
2022-10-30T04:51:35.355Z,9.00
2022-10-30T04:54:03.997Z,9.00
2022-10-30T04:56:35.059Z,9.00
2022-10-30T04:59:02.876Z,9.00
2022-10-30T05:01:30.795Z,9.00
2022-10-30T05:03:59.228Z,9.00
2022-10-30T05:06:30.624Z,9.00
2022-10-30T05:08:58.224Z,8.90
2022-10-30T05:11:37.599Z,8.90
2022-10-30T05:14:04.697Z,8.90
2022-10-30T05:16:31.685Z,8.90
2022-10-30T05:19:00.450Z,9.00
2022-10-30T05:21:28.810Z,8.90
2022-10-30T05:23:55.771Z,9.00
2022-10-30T05:26:23.689Z,9.00
2022-10-30T05:28:52.396Z,8.90
2022-10-30T05:31:19.723Z,8.90
2022-10-30T05:34:07.331Z,8.90
2022-10-30T05:36:37.992Z,8.90
2022-10-30T05:39:06.071Z,8.90
2022-10-30T05:41:36.695Z,8.90
2022-10-30T05:44:04.075Z,8.80
2022-10-30T05:46:32.391Z,8.80
2022-10-30T05:49:09.395Z,8.90
2022-10-30T05:51:39.721Z,8.80
2022-10-30T05:54:10.589Z,8.80
2022-10-30T05:56:43.982Z,8.80
2022-10-30T05:59:12.464Z,8.80
2022-10-30T06:01:40.385Z,8.90
2022-10-30T06:04:12.169Z,8.90
2022-10-30T06:06:39.181Z,8.90
2022-10-30T06:09:06.140Z,8.90
2022-10-30T06:11:42.065Z,8.90
2022-10-30T06:14:10.731Z,9.00
2022-10-30T06:16:50.517Z,9.00
2022-10-30T06:19:37.755Z,9.00
2022-10-30T06:22:24.669Z,9.00
2022-10-30T06:25:02.944Z,9.00
2022-10-30T06:27:53.340Z,9.00
2022-10-30T06:30:20.473Z,9.00
2022-10-30T06:32:47.671Z,9.00
2022-10-30T06:35:14.778Z,9.00
2022-10-30T06:37:46.021Z,9.10
2022-10-30T06:40:14.297Z,9.10
2022-10-30T06:42:47.491Z,9.10
2022-10-30T06:45:37.119Z,9.10
2022-10-30T06:48:04.217Z,9.20
2022-10-30T06:50:36.557Z,9.20
2022-10-30T06:53:03.781Z,9.20
2022-10-30T06:55:31.109Z,9.20
2022-10-30T06:58:16.601Z,9.20
2022-10-30T07:00:52.686Z,9.30
2022-10-30T07:03:19.665Z,9.30
2022-10-30T07:05:47.329Z,9.30
2022-10-30T07:08:14.809Z,9.40
2022-10-30T07:10:42.702Z,9.40
2022-10-30T07:13:28.302Z,9.40
2022-10-30T07:16:02.227Z,9.40
2022-10-30T07:18:35.397Z,9.40
2022-10-30T07:21:02.786Z,9.50
2022-10-30T07:23:31.559Z,9.50
2022-10-30T07:26:12.958Z,9.60
2022-10-30T07:28:45.828Z,9.60
2022-10-30T07:32:02.242Z,9.70
2022-10-30T07:34:34.559Z,9.90
2022-10-30T07:37:30.641Z,9.90
2022-10-30T07:40:17.019Z,10.00
2022-10-30T07:43:00.797Z,10.10
2022-10-30T07:45:37.172Z,10.20
2022-10-30T07:48:22.370Z,10.20
2022-10-30T07:51:01.537Z,10.30
2022-10-30T07:53:28.616Z,10.40
2022-10-30T07:55:56.463Z,10.50
2022-10-30T07:59:02.100Z,11.00
2022-10-30T08:01:47.595Z,11.80
2022-10-30T08:04:44.828Z,12.40
2022-10-30T08:07:32.158Z,12.80
2022-10-30T08:09:59.721Z,12.90
2022-10-30T08:12:27.337Z,12.80
2022-10-30T08:14:54.497Z,12.80
2022-10-30T08:17:22.062Z,13.10
2022-10-30T08:19:49.812Z,13.60
2022-10-30T08:22:18.037Z,14.10
2022-10-30T08:24:51.761Z,14.10
2022-10-30T08:27:18.992Z,14.20
2022-10-30T08:29:46.315Z,14.60
2022-10-30T08:32:13.244Z,15.00
2022-10-30T08:34:58.465Z,15.40
2022-10-30T08:37:26.010Z,15.00
2022-10-30T08:39:53.078Z,14.50
2022-10-30T08:42:38.790Z,14.20
2022-10-30T08:45:10.834Z,14.90
2022-10-30T08:48:05.423Z,15.90
2022-10-30T08:50:37.478Z,16.10
2022-10-30T08:53:08.783Z,16.10
2022-10-30T08:55:36.000Z,16.00
2022-10-30T08:58:06.454Z,16.20
2022-10-30T09:00:34.597Z,16.70
2022-10-30T09:03:13.369Z,16.90
2022-10-30T09:11:32.908Z,18.60
2022-10-30T09:14:02.943Z,18.70
2022-10-30T09:16:30.028Z,18.50
2022-10-30T09:18:56.967Z,18.50
2022-10-30T09:21:24.333Z,18.20
2022-10-30T09:23:57.092Z,17.90
2022-10-30T09:26:47.294Z,18.10
2022-10-30T09:29:25.728Z,18.00
2022-10-30T09:31:55.632Z,17.70
2022-10-30T09:34:24.999Z,17.80
2022-10-30T09:37:27.417Z,17.90
2022-10-30T09:39:59.510Z,17.80
2022-10-30T09:42:37.754Z,17.90
2022-10-30T09:45:30.151Z,18.60
2022-10-30T09:48:01.712Z,19.00
2022-10-30T09:50:41.283Z,18.70
2022-10-30T09:53:16.587Z,18.80
2022-10-30T09:55:48.000Z,19.20
2022-10-30T09:58:23.564Z,20.00
2022-10-30T10:00:52.218Z,20.70
2022-10-30T10:03:27.278Z,20.00
2022-10-30T10:06:18.777Z,20.00
2022-10-30T10:09:09.222Z,19.60
2022-10-30T10:11:56.206Z,20.00
2022-10-30T10:14:25.903Z,20.20
2022-10-30T10:16:54.167Z,20.60
2022-10-30T10:19:27.298Z,20.50
2022-10-30T10:22:01.880Z,19.90
2022-10-30T10:24:28.887Z,20.20
2022-10-30T10:27:14.724Z,19.40
2022-10-30T10:29:53.954Z,18.30
2022-10-30T10:32:21.003Z,17.70
2022-10-30T10:34:51.117Z,17.40
2022-10-30T10:37:41.514Z,17.00
2022-10-30T10:40:20.696Z,17.00
2022-10-30T10:42:55.626Z,17.00
2022-10-30T10:48:08.667Z,16.20
2022-10-30T10:50:39.110Z,15.40
2022-10-30T10:53:09.895Z,14.80
2022-10-30T10:55:39.147Z,14.40
2022-10-30T10:58:18.614Z,14.50
2022-10-30T11:00:46.035Z,14.50
2022-10-30T11:03:25.566Z,14.60
2022-10-30T11:05:57.841Z,14.60
2022-10-30T11:08:32.253Z,14.50
2022-10-30T11:11:00.528Z,14.00
2022-10-30T11:13:36.574Z,13.70
2022-10-30T11:16:07.301Z,13.50
2022-10-30T11:18:35.100Z,13.50
2022-10-30T11:21:04.802Z,13.40
2022-10-30T11:23:39.160Z,13.40
2022-10-30T11:26:18.451Z,13.30
2022-10-30T11:28:55.773Z,13.80
2022-10-30T11:31:38.210Z,14.20
2022-10-30T11:34:20.485Z,14.20
2022-10-30T11:36:49.098Z,14.30
2022-10-30T11:39:20.542Z,14.40
2022-10-30T11:41:59.606Z,14.10
2022-10-30T11:44:33.835Z,13.80
2022-10-30T11:47:01.299Z,13.40
2022-10-30T11:49:31.308Z,13.10
2022-10-30T11:51:58.628Z,13.00
2022-10-30T11:54:26.420Z,12.80
2022-10-30T11:56:54.438Z,12.60
2022-10-30T11:59:23.218Z,12.30
2022-10-30T12:01:59.307Z,12.10
2022-10-30T12:04:27.681Z,12.00
2022-10-30T12:07:08.243Z,12.00
2022-10-30T12:09:42.253Z,11.90
2022-10-30T12:12:25.155Z,11.80
2022-10-30T12:17:20.961Z,11.70
2022-10-30T12:19:51.926Z,11.60
2022-10-30T12:22:37.325Z,11.60
2022-10-30T12:25:07.053Z,11.60
2022-10-30T12:27:36.923Z,11.60
2022-10-30T12:30:10.942Z,11.60
2022-10-30T12:32:44.263Z,11.60
2022-10-30T12:35:18.556Z,11.60
2022-10-30T12:37:46.503Z,11.60
2022-10-30T12:40:30.127Z,11.60
2022-10-30T12:42:57.184Z,11.60
2022-10-30T12:45:40.494Z,11.60
2022-10-30T12:48:09.165Z,11.60
2022-10-30T12:50:43.611Z,11.50
2022-10-30T12:53:28.067Z,11.50
2022-10-30T12:55:58.728Z,11.50
2022-10-30T12:58:36.691Z,11.50
2022-10-30T13:01:10.009Z,11.40
2022-10-30T13:04:03.397Z,11.40
2022-10-30T13:06:32.878Z,11.40
2022-10-30T13:09:03.354Z,11.40
2022-10-30T13:11:33.594Z,11.40
2022-10-30T13:14:01.797Z,11.40
2022-10-30T13:16:29.959Z,11.50
2022-10-30T13:19:00.094Z,11.50
2022-10-30T13:21:32.124Z,11.50
2022-10-30T13:24:02.251Z,11.50
2022-10-30T13:26:36.336Z,11.50
2022-10-30T13:29:11.493Z,11.40
2022-10-30T13:31:44.867Z,11.50
2022-10-30T13:34:11.770Z,11.50
2022-10-30T13:39:13.077Z,11.30
2022-10-30T13:41:51.053Z,11.30
2022-10-30T13:44:17.979Z,11.40
2022-10-30T13:46:53.578Z,11.40
2022-10-30T13:49:26.584Z,11.40
2022-10-30T13:52:02.932Z,11.40
2022-10-30T13:54:50.121Z,11.30
2022-10-30T13:57:20.646Z,11.30
2022-10-30T13:59:55.913Z,11.30
2022-10-30T14:02:23.027Z,11.20
2022-10-30T14:04:57.862Z,11.20
2022-10-30T14:07:33.236Z,11.10
2022-10-30T14:10:09.915Z,11.00
2022-10-30T14:12:55.011Z,11.00
2022-10-30T14:15:36.245Z,11.00
2022-10-30T14:18:12.177Z,11.00
2022-10-30T14:20:39.693Z,11.00
2022-10-30T14:23:19.908Z,10.90
2022-10-30T14:26:02.273Z,10.80
2022-10-30T14:28:30.293Z,10.80
2022-10-30T14:31:04.927Z,10.70
2022-10-30T14:33:41.047Z,10.70
2022-10-30T14:36:16.835Z,10.70
2022-10-30T14:38:52.981Z,10.70
2022-10-30T14:41:27.371Z,10.70
2022-10-30T14:43:57.539Z,10.70
2022-10-30T14:46:36.798Z,10.70
2022-10-30T14:49:27.932Z,10.70
2022-10-30T14:52:04.323Z,10.60
2022-10-30T14:54:39.325Z,10.40
2022-10-30T14:57:20.145Z,10.40
2022-10-30T14:59:47.174Z,10.40
2022-10-30T15:02:20.746Z,10.30
2022-10-30T15:04:54.297Z,10.30
2022-10-30T15:07:34.260Z,10.30
2022-10-30T15:10:12.753Z,10.30
2022-10-30T15:12:47.565Z,10.30
2022-10-30T15:15:16.364Z,10.30
2022-10-30T15:17:44.714Z,10.40
2022-10-30T15:20:23.450Z,10.30
2022-10-30T15:22:54.678Z,10.40
2022-10-30T15:25:23.519Z,10.40
2022-10-30T15:27:54.693Z,10.40
2022-10-30T15:30:23.196Z,10.40
2022-10-30T15:32:50.146Z,10.40
2022-10-30T15:35:19.612Z,10.30
2022-10-30T15:38:05.961Z,10.30
2022-10-30T15:40:39.248Z,10.20
2022-10-30T15:43:07.777Z,10.10
2022-10-30T15:45:40.567Z,10.10
2022-10-30T15:48:27.794Z,10.10
2022-10-30T15:51:15.038Z,10.10
2022-10-30T15:53:53.802Z,10.20
2022-10-30T15:56:23.599Z,10.10
2022-10-30T15:58:52.073Z,10.10
2022-10-30T16:01:26.535Z,10.00
2022-10-30T16:03:54.453Z,10.00
2022-10-30T16:06:24.548Z,10.00
2022-10-30T16:08:52.146Z,10.00
2022-10-30T16:11:21.137Z,9.90
2022-10-30T16:13:48.525Z,10.00
2022-10-30T16:16:21.612Z,9.90
2022-10-30T16:18:48.872Z,10.00
2022-10-30T16:21:18.032Z,10.00
2022-10-30T16:23:49.707Z,9.90
2022-10-30T16:26:30.007Z,9.90
